sensor_id;sensor_type;location;lat;lon;timestamp;P1;durP1;ratioP1;P2;durP2;ratioP2
15254;SDS011;7730;49.610;11.136;2023-12-20T00:02:23;9.10;;;4.10;;
15254;SDS011;7730;49.610;11.136;2023-12-20T00:04:50;9.33;;;4.07;;
15254;SDS011;7730;49.610;11.136;2023-12-20T00:07:17;9.00;;;4.07;;
15254;SDS011;7730;49.610;11.136;2023-12-20T00:09:44;9.70;;;3.87;;
15254;SDS011;7730;49.610;11.136;2023-12-20T00:12:11;10.52;;;4.30;;
15254;SDS011;7730;49.610;11.136;2023-12-20T00:14:38;10.70;;;4.27;;
15254;SDS011;7730;49.610;11.136;2023-12-20T00:17:05;8.93;;;3.93;;
15254;SDS011;7730;49.610;11.136;2023-12-20T00:19:34;11.13;;;4.20;;
15254;SDS011;7730;49.610;11.136;2023-12-20T00:22:03;9.30;;;4.30;;
15254;SDS011;7730;49.610;11.136;2023-12-20T00:24:30;10.73;;;4.37;;
15254;SDS011;7730;49.610;11.136;2023-12-20T00:29:26;7.90;;;3.60;;
15254;SDS011;7730;49.610;11.136;2023-12-20T00:31:54;7.93;;;3.90;;
15254;SDS011;7730;49.610;11.136;2023-12-20T00:34:21;8.63;;;3.77;;
15254;SDS011;7730;49.610;11.136;2023-12-20T00:36:51;7.50;;;3.53;;
15254;SDS011;7730;49.610;11.136;2023-12-20T00:39:18;8.13;;;3.77;;
15254;SDS011;7730;49.610;11.136;2023-12-20T00:41:45;7.13;;;3.53;;
15254;SDS011;7730;49.610;11.136;2023-12-20T00:44:12;9.23;;;3.93;;
15254;SDS011;7730;49.610;11.136;2023-12-20T00:46:39;8.80;;;3.90;;
15254;SDS011;7730;49.610;11.136;2023-12-20T00:49:06;9.50;;;3.83;;
15254;SDS011;7730;49.610;11.136;2023-12-20T00:51:33;11.30;;;4.00;;
15254;SDS011;7730;49.610;11.136;2023-12-20T00:54:02;9.87;;;4.00;;
15254;SDS011;7730;49.610;11.136;2023-12-20T00:56:29;8.47;;;3.80;;
15254;SDS011;7730;49.610;11.136;2023-12-20T00:58:56;10.13;;;4.20;;
15254;SDS011;7730;49.610;11.136;2023-12-20T01:01:23;7.27;;;3.60;;
15254;SDS011;7730;49.610;11.136;2023-12-20T01:03:52;6.20;;;3.23;;
15254;SDS011;7730;49.610;11.136;2023-12-20T01:06:20;7.50;;;3.20;;
15254;SDS011;7730;49.610;11.136;2023-12-20T01:08:47;6.03;;;3.00;;
15254;SDS011;7730;49.610;11.136;2023-12-20T01:11:15;7.53;;;2.63;;
15254;SDS011;7730;49.610;11.136;2023-12-20T01:13:42;4.63;;;2.83;;
15254;SDS011;7730;49.610;11.136;2023-12-20T01:16:10;6.40;;;2.73;;
15254;SDS011;7730;49.610;11.136;2023-12-20T01:18:37;4.17;;;2.30;;
15254;SDS011;7730;49.610;11.136;2023-12-20T01:21:05;3.73;;;2.20;;
15254;SDS011;7730;49.610;11.136;2023-12-20T01:23:34;4.70;;;2.30;;
15254;SDS011;7730;49.610;11.136;2023-12-20T01:26:01;3.00;;;2.00;;
15254;SDS011;7730;49.610;11.136;2023-12-20T01:28:31;4.87;;;2.00;;
15254;SDS011;7730;49.610;11.136;2023-12-20T01:30:58;2.33;;;1.87;;
15254;SDS011;7730;49.610;11.136;2023-12-20T01:33:25;5.03;;;1.93;;
15254;SDS011;7730;49.610;11.136;2023-12-20T01:35:52;4.70;;;2.10;;
15254;SDS011;7730;49.610;11.136;2023-12-20T01:38:19;4.37;;;2.00;;
15254;SDS011;7730;49.610;11.136;2023-12-20T01:40:46;2.70;;;1.87;;
15254;SDS011;7730;49.610;11.136;2023-12-20T01:43:13;3.93;;;1.80;;
15254;SDS011;7730;49.610;11.136;2023-12-20T01:45:42;3.30;;;1.90;;
15254;SDS011;7730;49.610;11.136;2023-12-20T01:48:09;2.30;;;1.87;;
15254;SDS011;7730;49.610;11.136;2023-12-20T01:50:36;3.00;;;1.80;;
15254;SDS011;7730;49.610;11.136;2023-12-20T01:53:04;2.50;;;1.50;;
15254;SDS011;7730;49.610;11.136;2023-12-20T01:55:34;2.27;;;1.70;;
15254;SDS011;7730;49.610;11.136;2023-12-20T01:58:02;2.67;;;1.97;;
15254;SDS011;7730;49.610;11.136;2023-12-20T02:00:29;2.20;;;1.70;;
15254;SDS011;7730;49.610;11.136;2023-12-20T02:02:59;2.10;;;1.80;;
15254;SDS011;7730;49.610;11.136;2023-12-20T02:05:27;2.73;;;1.60;;
15254;SDS011;7730;49.610;11.136;2023-12-20T02:07:54;2.33;;;1.70;;
15254;SDS011;7730;49.610;11.136;2023-12-20T02:10:21;2.90;;;1.70;;
15254;SDS011;7730;49.610;11.136;2023-12-20T02:12:48;3.13;;;1.80;;
15254;SDS011;7730;49.610;11.136;2023-12-20T02:15:15;1.73;;;1.50;;
15254;SDS011;7730;49.610;11.136;2023-12-20T02:17:42;2.20;;;1.60;;
15254;SDS011;7730;49.610;11.136;2023-12-20T02:20:12;2.93;;;1.70;;
15254;SDS011;7730;49.610;11.136;2023-12-20T02:22:41;2.20;;;1.70;;
15254;SDS011;7730;49.610;11.136;2023-12-20T02:25:08;1.80;;;1.60;;
15254;SDS011;7730;49.610;11.136;2023-12-20T02:27:35;2.17;;;1.73;;
15254;SDS011;7730;49.610;11.136;2023-12-20T02:30:02;2.70;;;1.50;;
15254;SDS011;7730;49.610;11.136;2023-12-20T02:32:29;2.17;;;1.50;;
15254;SDS011;7730;49.610;11.136;2023-12-20T02:34:57;1.70;;;1.60;;
15254;SDS011;7730;49.610;11.136;2023-12-20T02:37:24;2.17;;;1.60;;
15254;SDS011;7730;49.610;11.136;2023-12-20T02:39:53;1.80;;;1.40;;
15254;SDS011;7730;49.610;11.136;2023-12-20T02:42:20;1.60;;;1.50;;
15254;SDS011;7730;49.610;11.136;2023-12-20T02:44:47;3.23;;;1.50;;
15254;SDS011;7730;49.610;11.136;2023-12-20T02:47:14;1.37;;;1.27;;
15254;SDS011;7730;49.610;11.136;2023-12-20T02:49:41;1.63;;;1.30;;
15254;SDS011;7730;49.610;11.136;2023-12-20T02:52:08;1.30;;;1.20;;
15254;SDS011;7730;49.610;11.136;2023-12-20T02:54:35;1.63;;;1.40;;
15254;SDS011;7730;49.610;11.136;2023-12-20T02:57:05;2.70;;;1.30;;
15254;SDS011;7730;49.610;11.136;2023-12-20T02:59:32;2.10;;;1.30;;
15254;SDS011;7730;49.610;11.136;2023-12-20T03:02:01;1.47;;;1.23;;
15254;SDS011;7730;49.610;11.136;2023-12-20T03:04:28;1.30;;;1.20;;
15254;SDS011;7730;49.610;11.136;2023-12-20T03:06:55;1.57;;;1.40;;
15254;SDS011;7730;49.610;11.136;2023-12-20T03:09:22;1.27;;;1.13;;
15254;SDS011;7730;49.610;11.136;2023-12-20T03:11:49;1.53;;;1.20;;
15254;SDS011;7730;49.610;11.136;2023-12-20T03:14:18;1.23;;;1.13;;
15254;SDS011;7730;49.610;11.136;2023-12-20T03:16:46;1.37;;;1.03;;
15254;SDS011;7730;49.610;11.136;2023-12-20T03:19:13;2.23;;;1.20;;
15254;SDS011;7730;49.610;11.136;2023-12-20T03:21:40;1.13;;;1.03;;
15254;SDS011;7730;49.610;11.136;2023-12-20T03:24:09;1.73;;;1.10;;
15254;SDS011;7730;49.610;11.136;2023-12-20T03:26:36;1.30;;;1.20;;
15254;SDS011;7730;49.610;11.136;2023-12-20T03:29:03;1.10;;;1.00;;
15254;SDS011;7730;49.610;11.136;2023-12-20T03:31:32;1.20;;;1.10;;
15254;SDS011;7730;49.610;11.136;2023-12-20T03:33:59;1.20;;;1.10;;
15254;SDS011;7730;49.610;11.136;2023-12-20T03:36:26;1.23;;;1.10;;
15254;SDS011;7730;49.610;11.136;2023-12-20T03:38:53;2.70;;;1.13;;
15254;SDS011;7730;49.610;11.136;2023-12-20T03:41:20;1.30;;;1.20;;
15254;SDS011;7730;49.610;11.136;2023-12-20T03:43:47;1.00;;;1.00;;
15254;SDS011;7730;49.610;11.136;2023-12-20T03:46:14;0.90;;;0.90;;
15254;SDS011;7730;49.610;11.136;2023-12-20T03:48:42;1.77;;;1.30;;
15254;SDS011;7730;49.610;11.136;2023-12-20T03:51:09;1.10;;;1.03;;
15254;SDS011;7730;49.610;11.136;2023-12-20T03:53:37;3.17;;;1.17;;
15254;SDS011;7730;49.610;11.136;2023-12-20T03:56:05;0.87;;;0.87;;
15254;SDS011;7730;49.610;11.136;2023-12-20T03:58:33;1.60;;;1.17;;
15254;SDS011;7730;49.610;11.136;2023-12-20T04:01:00;1.53;;;1.30;;
15254;SDS011;7730;49.610;11.136;2023-12-20T04:03:28;1.20;;;1.10;;
15254;SDS011;7730;49.610;11.136;2023-12-20T04:05:56;1.53;;;1.23;;
15254;SDS011;7730;49.610;11.136;2023-12-20T04:08:23;1.30;;;1.20;;
15254;SDS011;7730;49.610;11.136;2023-12-20T04:10:52;1.00;;;1.00;;
15254;SDS011;7730;49.610;11.136;2023-12-20T04:13:19;1.03;;;0.93;;
15254;SDS011;7730;49.610;11.136;2023-12-20T04:15:46;2.33;;;1.10;;
15254;SDS011;7730;49.610;11.136;2023-12-20T04:18:15;0.90;;;0.90;;
15254;SDS011;7730;49.610;11.136;2023-12-20T04:20:42;0.97;;;0.97;;
15254;SDS011;7730;49.610;11.136;2023-12-20T04:23:11;1.27;;;1.13;;
15254;SDS011;7730;49.610;11.136;2023-12-20T04:25:38;0.97;;;0.90;;
15254;SDS011;7730;49.610;11.136;2023-12-20T04:28:05;1.27;;;0.97;;
15254;SDS011;7730;49.610;11.136;2023-12-20T04:30:32;1.10;;;0.90;;
15254;SDS011;7730;49.610;11.136;2023-12-20T04:33:00;1.27;;;1.10;;
15254;SDS011;7730;49.610;11.136;2023-12-20T04:35:27;0.90;;;0.90;;
15254;SDS011;7730;49.610;11.136;2023-12-20T04:37:54;1.30;;;0.87;;
15254;SDS011;7730;49.610;11.136;2023-12-20T04:40:25;1.00;;;0.90;;
15254;SDS011;7730;49.610;11.136;2023-12-20T04:42:52;1.00;;;1.00;;
15254;SDS011;7730;49.610;11.136;2023-12-20T04:45:19;1.20;;;1.10;;
15254;SDS011;7730;49.610;11.136;2023-12-20T04:47:46;1.10;;;1.00;;
15254;SDS011;7730;49.610;11.136;2023-12-20T04:50:13;1.00;;;1.00;;
15254;SDS011;7730;49.610;11.136;2023-12-20T04:52:40;1.53;;;1.20;;
15254;SDS011;7730;49.610;11.136;2023-12-20T04:55:09;1.37;;;1.13;;
15254;SDS011;7730;49.610;11.136;2023-12-20T04:57:37;1.20;;;1.10;;
15254;SDS011;7730;49.610;11.136;2023-12-20T05:00:06;1.30;;;0.97;;
15254;SDS011;7730;49.610;11.136;2023-12-20T05:02:34;1.10;;;1.00;;
15254;SDS011;7730;49.610;11.136;2023-12-20T05:05:01;1.47;;;1.10;;
15254;SDS011;7730;49.610;11.136;2023-12-20T05:07:28;3.03;;;1.30;;
15254;SDS011;7730;49.610;11.136;2023-12-20T05:09:55;0.97;;;0.97;;
15254;SDS011;7730;49.610;11.136;2023-12-20T05:12:22;1.20;;;1.10;;
15254;SDS011;7730;49.610;11.136;2023-12-20T05:14:51;1.73;;;1.23;;
15254;SDS011;7730;49.610;11.136;2023-12-20T05:17:18;1.30;;;1.20;;
15254;SDS011;7730;49.610;11.136;2023-12-20T05:19:46;2.27;;;1.20;;
15254;SDS011;7730;49.610;11.136;2023-12-20T05:22:13;1.00;;;0.90;;
15254;SDS011;7730;49.610;11.136;2023-12-20T05:24:40;1.57;;;1.37;;
15254;SDS011;7730;49.610;11.136;2023-12-20T05:27:07;1.10;;;1.10;;
15254;SDS011;7730;49.610;11.136;2023-12-20T05:29:34;1.10;;;0.90;;
15254;SDS011;7730;49.610;11.136;2023-12-20T05:32:02;2.47;;;1.33;;
15254;SDS011;7730;49.610;11.136;2023-12-20T05:34:30;1.43;;;1.00;;
15254;SDS011;7730;49.610;11.136;2023-12-20T05:36:57;1.33;;;1.10;;
15254;SDS011;7730;49.610;11.136;2023-12-20T05:39:24;1.30;;;1.20;;
15254;SDS011;7730;49.610;11.136;2023-12-20T05:41:51;1.47;;;1.20;;
15254;SDS011;7730;49.610;11.136;2023-12-20T05:44:18;2.47;;;1.37;;
15254;SDS011;7730;49.610;11.136;2023-12-20T05:46:45;1.10;;;1.10;;
15254;SDS011;7730;49.610;11.136;2023-12-20T05:49:14;4.10;;;1.70;;
15254;SDS011;7730;49.610;11.136;2023-12-20T05:51:41;1.40;;;1.30;;
15254;SDS011;7730;49.610;11.136;2023-12-20T05:54:09;1.60;;;1.40;;
15254;SDS011;7730;49.610;11.136;2023-12-20T05:56:36;2.60;;;1.50;;
15254;SDS011;7730;49.610;11.136;2023-12-20T05:59:03;2.17;;;1.40;;
15254;SDS011;7730;49.610;11.136;2023-12-20T06:01:30;1.73;;;1.60;;
15254;SDS011;7730;49.610;11.136;2023-12-20T06:03:57;3.60;;;1.60;;
15254;SDS011;7730;49.610;11.136;2023-12-20T06:06:25;1.87;;;1.57;;
15254;SDS011;7730;49.610;11.136;2023-12-20T06:08:52;3.30;;;1.60;;
15254;SDS011;7730;49.610;11.136;2023-12-20T06:11:19;2.97;;;1.80;;
15254;SDS011;7730;49.610;11.136;2023-12-20T06:13:46;1.77;;;1.60;;
15254;SDS011;7730;49.610;11.136;2023-12-20T06:16:14;2.83;;;2.20;;
15254;SDS011;7730;49.610;11.136;2023-12-20T06:18:42;2.57;;;2.20;;
15254;SDS011;7730;49.610;11.136;2023-12-20T06:21:09;2.23;;;1.60;;
15254;SDS011;7730;49.610;11.136;2023-12-20T06:23:39;2.17;;;1.50;;
15254;SDS011;7730;49.610;11.136;2023-12-20T06:26:06;2.20;;;1.60;;
15254;SDS011;7730;49.610;11.136;2023-12-20T06:28:33;3.43;;;2.00;;
15254;SDS011;7730;49.610;11.136;2023-12-20T06:31:02;2.20;;;1.70;;
15254;SDS011;7730;49.610;11.136;2023-12-20T06:33:29;1.90;;;1.70;;
15254;SDS011;7730;49.610;11.136;2023-12-20T06:35:56;2.30;;;1.80;;
15254;SDS011;7730;49.610;11.136;2023-12-20T06:38:23;3.67;;;1.70;;
15254;SDS011;7730;49.610;11.136;2023-12-20T06:40:52;1.85;;;1.60;;
15254;SDS011;7730;49.610;11.136;2023-12-20T06:43:19;1.60;;;1.50;;
15254;SDS011;7730;49.610;11.136;2023-12-20T06:45:47;1.73;;;1.63;;
15254;SDS011;7730;49.610;11.136;2023-12-20T06:48:14;3.58;;;1.80;;
15254;SDS011;7730;49.610;11.136;2023-12-20T06:50:41;1.70;;;1.60;;
15254;SDS011;7730;49.610;11.136;2023-12-20T06:53:10;2.00;;;1.70;;
15254;SDS011;7730;49.610;11.136;2023-12-20T06:55:38;1.83;;;1.60;;
15254;SDS011;7730;49.610;11.136;2023-12-20T06:58:07;2.90;;;1.70;;
15254;SDS011;7730;49.610;11.136;2023-12-20T07:00:35;2.37;;;1.90;;
15254;SDS011;7730;49.610;11.136;2023-12-20T07:03:03;3.27;;;1.80;;
15254;SDS011;7730;49.610;11.136;2023-12-20T07:05:32;2.93;;;1.80;;
15254;SDS011;7730;49.610;11.136;2023-12-20T07:08:01;1.67;;;1.57;;
15254;SDS011;7730;49.610;11.136;2023-12-20T07:10:28;1.50;;;1.40;;
15254;SDS011;7730;49.610;11.136;2023-12-20T07:12:55;2.20;;;1.70;;
15254;SDS011;7730;49.610;11.136;2023-12-20T07:15:24;1.97;;;1.70;;
15254;SDS011;7730;49.610;11.136;2023-12-20T07:17:51;2.00;;;1.80;;
15254;SDS011;7730;49.610;11.136;2023-12-20T07:20:18;2.87;;;1.90;;
15254;SDS011;7730;49.610;11.136;2023-12-20T07:22:45;2.23;;;1.90;;
15254;SDS011;7730;49.610;11.136;2023-12-20T07:25:13;3.43;;;2.00;;
15254;SDS011;7730;49.610;11.136;2023-12-20T07:27:40;3.67;;;1.80;;
15254;SDS011;7730;49.610;11.136;2023-12-20T07:30:07;2.63;;;2.03;;
15254;SDS011;7730;49.610;11.136;2023-12-20T07:32:37;2.27;;;1.90;;
15254;SDS011;7730;49.610;11.136;2023-12-20T07:35:04;2.27;;;1.90;;
15254;SDS011;7730;49.610;11.136;2023-12-20T07:37:31;3.70;;;2.10;;
15254;SDS011;7730;49.610;11.136;2023-12-20T07:39:58;2.10;;;1.90;;
15254;SDS011;7730;49.610;11.136;2023-12-20T07:42:25;2.20;;;1.90;;
15254;SDS011;7730;49.610;11.136;2023-12-20T07:44:54;2.47;;;1.93;;
15254;SDS011;7730;49.610;11.136;2023-12-20T07:47:28;4.27;;;2.10;;
15254;SDS011;7730;49.610;11.136;2023-12-20T07:50:04;2.60;;;1.90;;
15254;SDS011;7730;49.610;11.136;2023-12-20T07:52:35;4.07;;;2.20;;
15254;SDS011;7730;49.610;11.136;2023-12-20T07:55:03;4.20;;;2.50;;
15254;SDS011;7730;49.610;11.136;2023-12-20T07:57:30;5.00;;;2.30;;
15254;SDS011;7730;49.610;11.136;2023-12-20T07:59:57;4.27;;;2.30;;
15254;SDS011;7730;49.610;11.136;2023-12-20T08:02:25;3.53;;;2.30;;
15254;SDS011;7730;49.610;11.136;2023-12-20T08:04:52;3.23;;;2.03;;
15254;SDS011;7730;49.610;11.136;2023-12-20T08:07:20;3.90;;;2.30;;
15254;SDS011;7730;49.610;11.136;2023-12-20T08:09:49;2.60;;;2.10;;
15254;SDS011;7730;49.610;11.136;2023-12-20T08:12:16;4.80;;;2.40;;
15254;SDS011;7730;49.610;11.136;2023-12-20T08:14:45;2.53;;;2.00;;
15254;SDS011;7730;49.610;11.136;2023-12-20T08:17:12;3.30;;;2.00;;
15254;SDS011;7730;49.610;11.136;2023-12-20T08:19:41;2.40;;;2.20;;
15254;SDS011;7730;49.610;11.136;2023-12-20T08:22:08;3.13;;;1.90;;
15254;SDS011;7730;49.610;11.136;2023-12-20T08:24:36;3.93;;;2.10;;
15254;SDS011;7730;49.610;11.136;2023-12-20T08:27:03;4.03;;;2.40;;
15254;SDS011;7730;49.610;11.136;2023-12-20T08:29:30;3.93;;;2.10;;
15254;SDS011;7730;49.610;11.136;2023-12-20T08:32:05;3.53;;;2.20;;
15254;SDS011;7730;49.610;11.136;2023-12-20T08:34:33;4.47;;;2.40;;
15254;SDS011;7730;49.610;11.136;2023-12-20T08:37:00;3.37;;;2.27;;
15254;SDS011;7730;49.610;11.136;2023-12-20T08:39:27;3.33;;;2.40;;
15254;SDS011;7730;49.610;11.136;2023-12-20T08:41:56;2.67;;;2.20;;
15254;SDS011;7730;49.610;11.136;2023-12-20T08:44:26;3.30;;;2.13;;
15254;SDS011;7730;49.610;11.136;2023-12-20T08:46:53;2.17;;;1.70;;
15254;SDS011;7730;49.610;11.136;2023-12-20T08:49:22;3.53;;;1.80;;
15254;SDS011;7730;49.610;11.136;2023-12-20T08:51:51;2.17;;;1.60;;
15254;SDS011;7730;49.610;11.136;2023-12-20T08:54:18;1.50;;;1.40;;
15254;SDS011;7730;49.610;11.136;2023-12-20T08:56:49;2.40;;;1.70;;
15254;SDS011;7730;49.610;11.136;2023-12-20T08:59:18;1.83;;;1.70;;
15254;SDS011;7730;49.610;11.136;2023-12-20T09:01:46;1.73;;;1.60;;
15254;SDS011;7730;49.610;11.136;2023-12-20T09:04:19;2.97;;;1.90;;
15254;SDS011;7730;49.610;11.136;2023-12-20T09:06:46;2.47;;;1.70;;
15254;SDS011;7730;49.610;11.136;2023-12-20T09:09:18;2.57;;;1.80;;
15254;SDS011;7730;49.610;11.136;2023-12-20T09:11:47;3.50;;;1.77;;
15254;SDS011;7730;49.610;11.136;2023-12-20T09:14:16;2.60;;;1.90;;
15254;SDS011;7730;49.610;11.136;2023-12-20T09:16:44;5.77;;;2.10;;
15254;SDS011;7730;49.610;11.136;2023-12-20T09:19:11;5.03;;;2.20;;
15254;SDS011;7730;49.610;11.136;2023-12-20T09:21:38;5.90;;;2.40;;
15254;SDS011;7730;49.610;11.136;2023-12-20T09:24:06;4.37;;;2.30;;
15254;SDS011;7730;49.610;11.136;2023-12-20T09:26:35;5.40;;;2.10;;
15254;SDS011;7730;49.610;11.136;2023-12-20T09:29:02;5.40;;;2.30;;
15254;SDS011;7730;49.610;11.136;2023-12-20T09:31:29;6.40;;;2.40;;
15254;SDS011;7730;49.610;11.136;2023-12-20T09:34:00;6.27;;;2.23;;
15254;SDS011;7730;49.610;11.136;2023-12-20T09:36:29;3.63;;;2.10;;
15254;SDS011;7730;49.610;11.136;2023-12-20T09:39:01;6.00;;;2.20;;
15254;SDS011;7730;49.610;11.136;2023-12-20T09:41:31;4.80;;;2.03;;
15254;SDS011;7730;49.610;11.136;2023-12-20T09:44:04;3.83;;;2.20;;
15254;SDS011;7730;49.610;11.136;2023-12-20T09:46:32;4.90;;;2.20;;
15254;SDS011;7730;49.610;11.136;2023-12-20T09:49:01;6.47;;;2.43;;
15254;SDS011;7730;49.610;11.136;2023-12-20T09:51:28;7.07;;;2.30;;
15254;SDS011;7730;49.610;11.136;2023-12-20T09:53:55;5.30;;;2.10;;
15254;SDS011;7730;49.610;11.136;2023-12-20T09:56:25;7.50;;;2.07;;
15254;SDS011;7730;49.610;11.136;2023-12-20T09:58:54;4.70;;;1.90;;
15254;SDS011;7730;49.610;11.136;2023-12-20T10:01:23;4.43;;;2.30;;
15254;SDS011;7730;49.610;11.136;2023-12-20T10:03:50;5.50;;;2.10;;
15254;SDS011;7730;49.610;11.136;2023-12-20T10:06:22;5.17;;;2.00;;
15254;SDS011;7730;49.610;11.136;2023-12-20T10:08:54;6.50;;;2.37;;
15254;SDS011;7730;49.610;11.136;2023-12-20T10:11:21;6.77;;;2.13;;
15254;SDS011;7730;49.610;11.136;2023-12-20T10:13:49;14.88;;;2.70;;
15254;SDS011;7730;49.610;11.136;2023-12-20T10:16:16;6.43;;;2.10;;
15254;SDS011;7730;49.610;11.136;2023-12-20T10:18:45;5.43;;;2.00;;
15254;SDS011;7730;49.610;11.136;2023-12-20T10:21:12;4.63;;;1.70;;
15254;SDS011;7730;49.610;11.136;2023-12-20T10:23:45;5.80;;;2.10;;
15254;SDS011;7730;49.610;11.136;2023-12-20T10:26:19;6.73;;;2.03;;
15254;SDS011;7730;49.610;11.136;2023-12-20T10:28:49;6.23;;;1.90;;
15254;SDS011;7730;49.610;11.136;2023-12-20T10:31:27;5.70;;;1.90;;
15254;SDS011;7730;49.610;11.136;2023-12-20T10:33:57;6.23;;;2.00;;
15254;SDS011;7730;49.610;11.136;2023-12-20T10:36:26;8.30;;;2.13;;
15254;SDS011;7730;49.610;11.136;2023-12-20T10:38:55;6.10;;;2.00;;
15254;SDS011;7730;49.610;11.136;2023-12-20T10:41:25;7.87;;;1.90;;
15254;SDS011;7730;49.610;11.136;2023-12-20T10:43:53;5.00;;;1.80;;
15254;SDS011;7730;49.610;11.136;2023-12-20T10:46:21;6.43;;;1.97;;
15254;SDS011;7730;49.610;11.136;2023-12-20T10:48:51;7.63;;;2.00;;
15254;SDS011;7730;49.610;11.136;2023-12-20T10:51:20;10.63;;;2.17;;
15254;SDS011;7730;49.610;11.136;2023-12-20T10:53:47;5.00;;;1.70;;
15254;SDS011;7730;49.610;11.136;2023-12-20T10:56:17;15.63;;;3.13;;
15254;SDS011;7730;49.610;11.136;2023-12-20T10:58:48;9.40;;;2.03;;
15254;SDS011;7730;49.610;11.136;2023-12-20T11:01:17;24.87;;;4.10;;
15254;SDS011;7730;49.610;11.136;2023-12-20T11:03:49;6.83;;;1.93;;
15254;SDS011;7730;49.610;11.136;2023-12-20T11:06:20;6.80;;;1.80;;
15254;SDS011;7730;49.610;11.136;2023-12-20T11:08:57;6.60;;;1.80;;
15254;SDS011;7730;49.610;11.136;2023-12-20T11:11:37;6.77;;;2.07;;
15254;SDS011;7730;49.610;11.136;2023-12-20T11:14:06;7.00;;;1.87;;
15254;SDS011;7730;49.610;11.136;2023-12-20T11:16:36;7.23;;;2.00;;
15254;SDS011;7730;49.610;11.136;2023-12-20T11:19:04;7.23;;;1.90;;
15254;SDS011;7730;49.610;11.136;2023-12-20T11:21:31;7.53;;;2.20;;
15254;SDS011;7730;49.610;11.136;2023-12-20T11:24:01;7.80;;;2.37;;
15254;SDS011;7730;49.610;11.136;2023-12-20T11:26:29;6.83;;;1.90;;
15254;SDS011;7730;49.610;11.136;2023-12-20T11:31:41;7.43;;;1.97;;
15254;SDS011;7730;49.610;11.136;2023-12-20T11:34:12;7.23;;;2.00;;
15254;SDS011;7730;49.610;11.136;2023-12-20T11:36:39;8.20;;;2.10;;
15254;SDS011;7730;49.610;11.136;2023-12-20T11:39:06;9.70;;;2.17;;
15254;SDS011;7730;49.610;11.136;2023-12-20T11:41:36;7.33;;;2.00;;
15254;SDS011;7730;49.610;11.136;2023-12-20T11:44:04;6.73;;;2.40;;
15254;SDS011;7730;49.610;11.136;2023-12-20T11:46:31;7.40;;;2.00;;
15254;SDS011;7730;49.610;11.136;2023-12-20T11:48:59;6.87;;;2.10;;
15254;SDS011;7730;49.610;11.136;2023-12-20T11:51:27;7.03;;;1.97;;
15254;SDS011;7730;49.610;11.136;2023-12-20T11:53:56;5.53;;;2.10;;
15254;SDS011;7730;49.610;11.136;2023-12-20T11:56:23;6.57;;;1.80;;
15254;SDS011;7730;49.610;11.136;2023-12-20T11:58:55;6.37;;;2.00;;
15254;SDS011;7730;49.610;11.136;2023-12-20T12:01:22;8.23;;;2.10;;
15254;SDS011;7730;49.610;11.136;2023-12-20T12:04:03;5.40;;;1.80;;
15254;SDS011;7730;49.610;11.136;2023-12-20T12:06:30;6.70;;;2.00;;
15254;SDS011;7730;49.610;11.136;2023-12-20T12:08:58;6.80;;;2.07;;
15254;SDS011;7730;49.610;11.136;2023-12-20T12:11:25;6.17;;;2.00;;
15254;SDS011;7730;49.610;11.136;2023-12-20T12:13:53;7.90;;;1.97;;
15254;SDS011;7730;49.610;11.136;2023-12-20T12:16:23;9.90;;;2.10;;
15254;SDS011;7730;49.610;11.136;2023-12-20T12:18:55;6.13;;;2.10;;
15254;SDS011;7730;49.610;11.136;2023-12-20T12:21:26;6.83;;;2.17;;
15254;SDS011;7730;49.610;11.136;2023-12-20T12:24:06;8.23;;;2.30;;
15254;SDS011;7730;49.610;11.136;2023-12-20T12:26:33;6.57;;;1.90;;
15254;SDS011;7730;49.610;11.136;2023-12-20T12:29:00;8.00;;;2.27;;
15254;SDS011;7730;49.610;11.136;2023-12-20T12:31:28;10.00;;;2.67;;
15254;SDS011;7730;49.610;11.136;2023-12-20T12:33:55;33.37;;;4.47;;
15254;SDS011;7730;49.610;11.136;2023-12-20T12:36:23;8.67;;;2.43;;
15254;SDS011;7730;49.610;11.136;2023-12-20T12:38:52;9.73;;;2.73;;
15254;SDS011;7730;49.610;11.136;2023-12-20T12:41:21;8.90;;;2.50;;
15254;SDS011;7730;49.610;11.136;2023-12-20T12:43:49;10.93;;;3.00;;
15254;SDS011;7730;49.610;11.136;2023-12-20T12:46:16;9.70;;;2.70;;
15254;SDS011;7730;49.610;11.136;2023-12-20T12:48:43;8.00;;;2.50;;
15254;SDS011;7730;49.610;11.136;2023-12-20T12:51:11;7.77;;;2.30;;
15254;SDS011;7730;49.610;11.136;2023-12-20T12:53:43;7.93;;;2.50;;
15254;SDS011;7730;49.610;11.136;2023-12-20T12:56:11;7.13;;;2.20;;
15254;SDS011;7730;49.610;11.136;2023-12-20T12:58:41;14.47;;;2.70;;
15254;SDS011;7730;49.610;11.136;2023-12-20T13:01:08;8.50;;;2.20;;
15254;SDS011;7730;49.610;11.136;2023-12-20T13:03:35;7.73;;;2.20;;
15254;SDS011;7730;49.610;11.136;2023-12-20T13:06:03;7.80;;;2.27;;
15254;SDS011;7730;49.610;11.136;2023-12-20T13:08:33;6.07;;;2.03;;
15254;SDS011;7730;49.610;11.136;2023-12-20T13:11:01;7.53;;;2.40;;
15254;SDS011;7730;49.610;11.136;2023-12-20T13:13:30;5.77;;;2.00;;
15254;SDS011;7730;49.610;11.136;2023-12-20T13:15:59;6.40;;;1.63;;
15254;SDS011;7730;49.610;11.136;2023-12-20T13:18:26;9.07;;;2.13;;
15254;SDS011;7730;49.610;11.136;2023-12-20T13:20:53;6.23;;;2.47;;
15254;SDS011;7730;49.610;11.136;2023-12-20T13:23:21;9.13;;;2.77;;
15254;SDS011;7730;49.610;11.136;2023-12-20T13:25:48;7.63;;;2.57;;
15254;SDS011;7730;49.610;11.136;2023-12-20T13:28:16;4.77;;;2.03;;
15254;SDS011;7730;49.610;11.136;2023-12-20T13:30:45;5.00;;;1.90;;
15254;SDS011;7730;49.610;11.136;2023-12-20T13:33:11;8.50;;;2.10;;
15254;SDS011;7730;49.610;11.136;2023-12-20T13:35:38;9.37;;;2.50;;
15254;SDS011;7730;49.610;11.136;2023-12-20T13:38:07;7.00;;;1.90;;
15254;SDS011;7730;49.610;11.136;2023-12-20T13:40:34;6.23;;;2.20;;
15254;SDS011;7730;49.610;11.136;2023-12-20T13:43:03;11.07;;;3.17;;
15254;SDS011;7730;49.610;11.136;2023-12-20T13:45:31;8.87;;;2.73;;
15254;SDS011;7730;49.610;11.136;2023-12-20T13:47:59;9.53;;;2.90;;
15254;SDS011;7730;49.610;11.136;2023-12-20T13:50:29;13.93;;;4.00;;
15254;SDS011;7730;49.610;11.136;2023-12-20T13:52:56;14.20;;;4.20;;
15254;SDS011;7730;49.610;11.136;2023-12-20T13:55:23;10.13;;;3.37;;
15254;SDS011;7730;49.610;11.136;2023-12-20T13:57:52;7.80;;;2.40;;
15254;SDS011;7730;49.610;11.136;2023-12-20T14:00:20;8.10;;;2.30;;
15254;SDS011;7730;49.610;11.136;2023-12-20T14:02:50;8.77;;;2.47;;
15254;SDS011;7730;49.610;11.136;2023-12-20T14:05:20;8.63;;;2.40;;
15254;SDS011;7730;49.610;11.136;2023-12-20T14:07:48;7.67;;;2.33;;
15254;SDS011;7730;49.610;11.136;2023-12-20T14:10:15;6.33;;;2.20;;
15254;SDS011;7730;49.610;11.136;2023-12-20T14:12:42;7.03;;;1.97;;
15254;SDS011;7730;49.610;11.136;2023-12-20T14:15:22;9.20;;;2.40;;
15254;SDS011;7730;49.610;11.136;2023-12-20T14:17:50;8.83;;;2.37;;
15254;SDS011;7730;49.610;11.136;2023-12-20T14:20:28;7.20;;;2.17;;
15254;SDS011;7730;49.610;11.136;2023-12-20T14:22:55;8.57;;;2.10;;
15254;SDS011;7730;49.610;11.136;2023-12-20T14:25:23;9.47;;;2.23;;
15254;SDS011;7730;49.610;11.136;2023-12-20T14:27:50;9.50;;;2.20;;
15254;SDS011;7730;49.610;11.136;2023-12-20T14:30:17;7.70;;;2.43;;
15254;SDS011;7730;49.610;11.136;2023-12-20T14:32:47;10.00;;;2.80;;
15254;SDS011;7730;49.610;11.136;2023-12-20T14:35:14;7.43;;;2.40;;
15254;SDS011;7730;49.610;11.136;2023-12-20T14:37:45;6.87;;;2.30;;
15254;SDS011;7730;49.610;11.136;2023-12-20T14:40:15;9.30;;;2.73;;
15254;SDS011;7730;49.610;11.136;2023-12-20T14:42:42;8.30;;;2.37;;
15254;SDS011;7730;49.610;11.136;2023-12-20T14:45:09;6.80;;;2.40;;
15254;SDS011;7730;49.610;11.136;2023-12-20T14:47:38;11.13;;;3.27;;
15254;SDS011;7730;49.610;11.136;2023-12-20T14:50:06;10.23;;;2.70;;
15254;SDS011;7730;49.610;11.136;2023-12-20T14:52:33;8.77;;;2.40;;
15254;SDS011;7730;49.610;11.136;2023-12-20T14:55:03;8.57;;;2.30;;
15254;SDS011;7730;49.610;11.136;2023-12-20T14:57:32;7.15;;;2.45;;
15254;SDS011;7730;49.610;11.136;2023-12-20T14:59:59;8.40;;;2.30;;